Time;durP1;ratioP1;P1;durP2;ratioP2;P2;SDS_P1;SDS_P2;PMS_P1;PMS_P2;Temp;Humidity;BMP_temperature;BMP_pressure;BME280_temperature;BME280_humidity;BME280_pressure;Samples;Min_cycle;Max_cycle;Signal;HPM_P1;HPM_P2
2023/03/13 00:01:29;;;;;;;;;;;;;;;5.12;53.86;100592.06;5588213;31;33762;-63
2023/03/13 00:04:34;;;;;;;;;;;;;;;5.08;54.36;100591.47;5587300;31;34827;-63
2023/03/13 00:07:39;;;;;;;;;;;;;;;5.09;54.49;100589.66;5587438;31;33196;-63
2023/03/13 00:10:48;;;;;;;;;;;;;;;5.04;54.90;100594.47;5587154;31;32887;-63
2023/03/13 00:13:58;;;;;;;;;;;;;;;5.03;54.59;100592.81;5587169;31;34253;-63
2023/03/13 00:17:02;;;;;;;;;;;;;;;5.03;55.29;100600.72;5587899;31;34650;-63
2023/03/13 00:20:09;;;;;;;;;;;;;;;5.05;56.06;100585.63;5590765;31;34212;-62
2023/03/13 00:23:17;;;;;;;;;;;;;;;5.10;56.34;100584.28;5590530;31;35032;-62
2023/03/13 00:26:24;;;;;;;;;;;;;;;5.15;55.85;100579.47;5590640;31;34341;-62
2023/03/13 00:29:32;;;;;;;;;;;;;;;5.11;56.55;100583.34;5590571;31;34859;-62
2023/03/13 00:32:46;;;;;;;;;;;;;;;5.10;56.80;100576.41;5590509;31;34246;-62
2023/03/13 00:35:59;;;;;;;;;;;;;;;5.16;56.27;100588.22;5589795;31;34390;-63
2023/03/13 00:39:05;;;;;;;;;;;;;;;5.10;57.21;100581.66;5589764;31;34285;-63
2023/03/13 00:42:17;;;;;;;;;;;;;;;5.11;57.21;100587.75;5590265;31;34986;-63
2023/03/13 00:45:25;;;;;;;;;;;;;;;5.09;56.84;100573.88;5590397;31;34828;-63
2023/03/13 00:48:35;;;;;;;;;;;;;;;4.96;58.36;100575.87;5589678;31;34378;-63
2023/03/13 00:51:44;;;;;;;;;;;;;;;4.93;58.34;100574.34;5589379;31;32957;-63
2023/03/13 00:54:54;;;;;;;;;;;;;;;5.00;58.92;100572.03;5590617;31;34665;-63
2023/03/13 00:58:04;;;;;;;;;;;;;;;5.06;59.07;100566.25;5589043;31;32823;-62
2023/03/13 01:01:16;;;;;;;;;;;;;;;4.97;60.21;100559.16;5590255;31;34061;-63
2023/03/13 01:04:24;;;;;;;;;;;;;;;5.05;60.20;100554.91;5590302;31;34298;-63
2023/03/13 01:07:32;;;;;;;;;;;;;;;5.00;60.57;100543.09;5590111;31;34347;-63
2023/03/13 01:10:39;;;;;;;;;;;;;;;5.01;61.16;100534.25;5590027;31;34947;-63
2023/03/13 01:13:46;;;;;;;;;;;;;;;5.00;61.45;100522.06;5589237;31;33181;-63
2023/03/13 01:16:57;;;;;;;;;;;;;;;4.96;61.64;100529.41;5590140;31;34830;-63
2023/03/13 01:20:06;;;;;;;;;;;;;;;4.91;61.96;100544.72;5589522;31;34516;-63
2023/03/13 01:23:14;;;;;;;;;;;;;;;4.93;62.74;100534.91;5590027;31;34214;-63
2023/03/13 01:26:24;;;;;;;;;;;;;;;4.89;63.19;100543.19;5590146;31;34482;-63
2023/03/13 01:29:31;;;;;;;;;;;;;;;4.89;64.18;100537.94;5589456;31;34996;-63
2023/03/13 01:32:41;;;;;;;;;;;;;;;4.86;64.17;100533.75;5589471;31;34598;-63
2023/03/13 01:35:48;;;;;;;;;;;;;;;4.88;64.37;100523.12;5590451;31;34193;-63
2023/03/13 01:38:58;;;;;;;;;;;;;;;4.85;64.75;100513.66;5590021;31;34440;-65
2023/03/13 01:42:04;;;;;;;;;;;;;;;4.99;64.37;100509.88;5590112;31;34200;-63
2023/03/13 01:45:30;;;;;;;;;;;;;;;4.94;65.16;100518.16;5590053;31;34590;-63
2023/03/13 01:48:40;;;;;;;;;;;;;;;5.00;64.86;100512.41;5589239;31;34164;-63
2023/03/13 01:51:55;;;;;;;;;;;;;;;5.12;65.09;100503.50;5589939;31;34904;-63
2023/03/13 01:55:09;;;;;;;;;;;;;;;5.12;64.55;100505.28;5589967;31;34946;-63
2023/03/13 01:58:20;;;;;;;;;;;;;;;5.07;66.02;100503.03;5589829;31;34472;-63
2023/03/13 02:01:27;;;;;;;;;;;;;;;5.07;65.98;100507.47;5590046;31;34453;-63
2023/03/13 02:04:37;;;;;;;;;;;;;;;5.13;66.31;100494.59;5589926;31;34214;-63
2023/03/13 02:07:53;;;;;;;;;;;;;;;5.12;65.74;100494.75;5589919;31;34449;-63
2023/03/13 02:11:19;;;;;;;;;;;;;;;5.11;66.18;100496.56;5588907;31;34659;-63
2023/03/13 02:14:27;;;;;;;;;;;;;;;5.11;66.30;100488.66;5589081;31;34902;-63
2023/03/13 02:17:36;;;;;;;;;;;;;;;5.13;66.67;100510.38;5590133;31;34172;-63
2023/03/13 02:20:44;;;;;;;;;;;;;;;5.11;66.76;100506.25;5589837;31;34671;-63
2023/03/13 02:23:56;;;;;;;;;;;;;;;5.09;66.83;100506.34;5589077;31;34779;-63
2023/03/13 02:27:07;;;;;;;;;;;;;;;5.06;67.18;100498.75;5589609;31;33822;-63
2023/03/13 02:30:16;;;;;;;;;;;;;;;5.12;66.88;100498.22;5589451;31;34948;-63
2023/03/13 02:33:28;;;;;;;;;;;;;;;5.05;66.65;100499.69;5589623;31;34357;-63
2023/03/13 02:36:38;;;;;;;;;;;;;;;4.97;66.92;100506.56;5589928;31;34944;-63
2023/03/13 02:39:47;;;;;;;;;;;;;;;4.99;67.04;100504.63;5588884;31;34296;-63
2023/03/13 02:43:00;;;;;;;;;;;;;;;5.00;67.72;100507.13;5589347;31;34217;-63
2023/03/13 02:46:16;;;;;;;;;;;;;;;4.92;67.91;100511.37;5589586;31;35039;-63
2023/03/13 02:49:27;;;;;;;;;;;;;;;5.01;68.36;100506.19;5589791;31;34818;-62
2023/03/13 02:52:37;;;;;;;;;;;;;;;4.87;68.55;100501.25;5589457;31;34270;-63
2023/03/13 02:55:49;;;;;;;;;;;;;;;4.89;69.08;100501.13;5589558;31;34236;-63
2023/03/13 02:58:59;;;;;;;;;;;;;;;4.79;69.76;100493.19;5589511;31;34884;-63
2023/03/13 03:02:06;;;;;;;;;;;;;;;4.80;70.20;100500.09;5589181;31;34893;-63
2023/03/13 03:05:13;;;;;;;;;;;;;;;4.80;70.77;100503.53;5588604;31;34287;-63
2023/03/13 03:08:19;;;;;;;;;;;;;;;4.77;71.33;100503.81;5575701;31;32600;-63
2023/03/13 03:11:27;;;;;;;;;;;;;;;4.77;73.26;100506.44;5588979;31;34262;-63
2023/03/13 03:14:36;;;;;;;;;;;;;;;4.72;73.91;100515.66;5589118;31;34343;-63
2023/03/13 03:17:44;;;;;;;;;;;;;;;4.72;73.74;100519.13;5589097;31;34829;-63
2023/03/13 03:20:53;;;;;;;;;;;;;;;4.65;72.99;100525.00;5589061;31;34201;-63
2023/03/13 03:24:03;;;;;;;;;;;;;;;4.64;72.76;100523.34;5588888;31;34228;-63
2023/03/13 03:27:10;;;;;;;;;;;;;;;4.56;73.77;100516.09;5588901;31;34838;-63
2023/03/13 03:30:19;;;;;;;;;;;;;;;4.61;74.33;100519.16;5588141;31;34184;-62
2023/03/13 03:33:26;;;;;;;;;;;;;;;4.57;74.57;100509.88;5588741;31;34971;-63
2023/03/13 03:36:31;;;;;;;;;;;;;;;4.58;74.15;100521.22;5588011;31;34843;-63
2023/03/13 03:39:39;;;;;;;;;;;;;;;4.45;74.82;100523.19;5588065;31;34977;-63
2023/03/13 03:42:47;;;;;;;;;;;;;;;4.34;75.62;100510.94;5588680;31;34414;-64
2023/03/13 03:45:55;;;;;;;;;;;;;;;4.24;77.21;100510.00;5588712;31;34358;-63
2023/03/13 03:49:04;;;;;;;;;;;;;;;4.12;77.95;100510.97;5588719;31;34269;-63
2023/03/13 03:52:13;;;;;;;;;;;;;;;4.14;78.70;100519.59;5589430;31;35722;-63
2023/03/13 03:55:22;;;;;;;;;;;;;;;4.07;79.43;100523.62;5591030;31;34247;-63
2023/03/13 03:58:31;;;;;;;;;;;;;;;4.00;80.80;100528.56;5591033;31;34885;-63
2023/03/13 04:01:44;;;;;;;;;;;;;;;3.90;83.17;100538.13;5590905;31;34753;-63
2023/03/13 04:04:55;;;;;;;;;;;;;;;3.92;84.52;100539.66;5590875;31;34994;-63
2023/03/13 04:08:02;;;;;;;;;;;;;;;3.92;84.28;100546.72;5590142;31;34892;-63
2023/03/13 04:11:08;;;;;;;;;;;;;;;3.94;85.34;100557.91;5590610;31;34306;-63
2023/03/13 04:14:18;;;;;;;;;;;;;;;3.84;86.33;100556.97;5590994;31;34998;-63
2023/03/13 04:17:27;;;;;;;;;;;;;;;3.86;87.54;100549.81;5590778;31;34124;-63
2023/03/13 04:20:39;;;;;;;;;;;;;;;3.88;87.27;100564.47;5590801;31;35020;-62
2023/03/13 04:23:52;;;;;;;;;;;;;;;3.94;86.79;100558.75;5590771;31;34832;-63
2023/03/13 04:27:02;;;;;;;;;;;;;;;3.95;86.83;100562.22;5590725;31;34248;-63
2023/03/13 04:30:12;;;;;;;;;;;;;;;4.05;87.31;100571.03;5590011;31;34230;-63
2023/03/13 04:33:23;;;;;;;;;;;;;;;4.02;88.95;100573.06;5589906;31;34862;-63
2023/03/13 04:36:29;;;;;;;;;;;;;;;4.06;88.73;100577.13;5590632;31;34408;-63
2023/03/13 04:39:37;;;;;;;;;;;;;;;4.10;89.20;100573.28;5590832;31;34933;-63
2023/03/13 04:42:45;;;;;;;;;;;;;;;4.17;89.27;100572.66;5590261;31;34242;-62
2023/03/13 04:45:55;;;;;;;;;;;;;;;4.19;89.08;100572.56;5590386;31;34860;-63
2023/03/13 04:49:05;;;;;;;;;;;;;;;4.28;89.13;100564.78;5590457;31;34743;-62
2023/03/13 04:52:15;;;;;;;;;;;;;;;4.19;88.97;100569.94;5590367;31;33297;-62
2023/03/13 04:55:23;;;;;;;;;;;;;;;4.20;89.98;100572.44;5590492;31;34832;-63
2023/03/13 04:58:30;;;;;;;;;;;;;;;4.17;91.05;100580.56;5590313;31;34263;-62
2023/03/13 05:01:41;;;;;;;;;;;;;;;4.25;90.81;100588.66;5589682;31;34748;-63
2023/03/13 05:04:50;;;;;;;;;;;;;;;4.40;89.33;100589.25;5589023;31;33850;-65
2023/03/13 05:07:59;;;;;;;;;;;;;;;4.23;92.38;100590.56;5590177;31;34609;-64
2023/03/13 05:11:06;;;;;;;;;;;;;;;4.25;91.65;100595.72;5590324;31;34601;-64
2023/03/13 05:14:16;;;;;;;;;;;;;;;4.21;91.58;100602.16;5590387;31;34335;-64
2023/03/13 05:17:22;;;;;;;;;;;;;;;4.13;90.09;100600.13;5590188;31;34358;-63
2023/03/13 05:20:35;;;;;;;;;;;;;;;4.17;90.39;100609.44;5590187;31;34907;-64
2023/03/13 05:23:45;;;;;;;;;;;;;;;4.16;90.48;100599.91;5589466;31;34212;-63
2023/03/13 05:26:56;;;;;;;;;;;;;;;4.08;90.76;100604.06;5590472;31;34890;-63
2023/03/13 05:30:06;;;;;;;;;;;;;;;4.04;91.14;100600.84;5589543;31;34100;-64
2023/03/13 05:33:19;;;;;;;;;;;;;;;4.05;91.10;100602.53;5576837;31;32860;-63
2023/03/13 05:36:24;;;;;;;;;;;;;;;4.07;91.05;100607.66;5589408;31;34628;-63
2023/03/13 05:39:31;;;;;;;;;;;;;;;4.14;91.29;100608.84;5589958;31;34921;-63
2023/03/13 05:42:36;;;;;;;;;;;;;;;4.03;92.81;100616.72;5589797;31;34855;-63
2023/03/13 05:45:42;;;;;;;;;;;;;;;4.02;94.02;100612.44;5589237;31;34310;-63
2023/03/13 05:48:51;;;;;;;;;;;;;;;4.14;93.88;100614.09;5590027;31;34245;-63
2023/03/13 05:51:58;;;;;;;;;;;;;;;4.14;93.84;100614.09;5589883;31;34285;-63
2023/03/13 05:55:03;;;;;;;;;;;;;;;4.19;94.02;100610.16;5589944;31;34495;-63
2023/03/13 05:58:07;;;;;;;;;;;;;;;4.17;95.70;100604.19;5589596;31;34203;-63
2023/03/13 06:01:15;;;;;;;;;;;;;;;4.14;94.04;100601.81;5589845;31;34137;-62
2023/03/13 06:04:24;;;;;;;;;;;;;;;4.18;93.86;100607.63;5589799;31;34319;-63
2023/03/13 06:07:30;;;;;;;;;;;;;;;4.25;93.29;100612.31;5589904;31;34892;-64
2023/03/13 06:10:37;;;;;;;;;;;;;;;4.27;92.34;100607.75;5589014;31;35037;-63
2023/03/13 06:13:41;;;;;;;;;;;;;;;4.21;92.11;100608.22;5589454;31;34981;-64
2023/03/13 06:16:47;;;;;;;;;;;;;;;4.35;91.44;100594.88;5589410;31;34293;-63
2023/03/13 06:19:53;;;;;;;;;;;;;;;4.30;91.25;100593.56;5589901;31;34221;-63
2023/03/13 06:22:58;;;;;;;;;;;;;;;4.33;90.86;100602.00;5589342;31;34847;-63
2023/03/13 06:26:03;;;;;;;;;;;;;;;4.51;89.63;100599.69;5588570;31;34437;-63
2023/03/13 06:29:08;;;;;;;;;;;;;;;4.42;89.32;100595.19;5587938;31;34892;-63
2023/03/13 06:32:13;;;;;;;;;;;;;;;4.29;90.18;100605.00;5588875;31;34256;-63
2023/03/13 06:35:17;;;;;;;;;;;;;;;4.48;89.98;100601.75;5589561;31;32522;-63
2023/03/13 06:38:26;;;;;;;;;;;;;;;4.42;88.38;100604.84;5576520;31;33957;-63
2023/03/13 06:41:32;;;;;;;;;;;;;;;4.61;88.47;100599.78;5589100;31;35005;-64
2023/03/13 06:44:35;;;;;;;;;;;;;;;4.84;87.37;100609.28;5589050;31;34921;-63
2023/03/13 06:47:39;;;;;;;;;;;;;;;4.88;86.72;100610.69;5589166;31;35044;-63
2023/03/13 06:50:44;;;;;;;;;;;;;;;5.02;86.08;100615.66;5589180;31;35037;-64
2023/03/13 06:53:51;;;;;;;;;;;;;;;5.18;84.72;100608.12;5588761;31;34775;-63
2023/03/13 06:56:55;;;;;;;;;;;;;;;4.74;86.39;100614.44;5588494;31;34332;-64
2023/03/13 06:59:59;;;;;;;;;;;;;;;4.98;85.54;100610.78;5588622;31;34208;-63
2023/03/13 07:03:02;;;;;;;;;;;;;;;5.19;83.21;100606.34;5588784;31;34855;-63
2023/03/13 07:06:07;;;;;;;;;;;;;;;5.27;81.70;100605.72;5588835;31;34692;-63
2023/03/13 07:09:10;;;;;;;;;;;;;;;5.44;81.18;100613.87;5589119;31;34888;-63
2023/03/13 07:12:16;;;;;;;;;;;;;;;5.42;79.07;100609.72;5587974;31;34354;-63
2023/03/13 07:15:20;;;;;;;;;;;;;;;5.51;76.93;100611.56;5589043;31;34505;-64
2023/03/13 07:18:25;;;;;;;;;;;;;;;5.68;75.62;100609.16;5588762;31;35633;-64
2023/03/13 07:21:28;;;;;;;;;;;;;;;5.60;75.70;100598.44;5588716;31;34729;-64
2023/03/13 07:24:33;;;;;;;;;;;;;;;5.58;74.81;100605.63;5588680;31;34904;-64
2023/03/13 07:27:38;;;;;;;;;;;;;;;5.79;73.87;100591.59;5587595;31;34772;-64
2023/03/13 07:30:44;;;;;;;;;;;;;;;6.04;72.99;100593.81;5588676;31;34931;-63
2023/03/13 07:33:51;;;;;;;;;;;;;;;6.30;70.69;100596.78;5588041;31;34346;-64
2023/03/13 07:36:57;;;;;;;;;;;;;;;6.31;69.37;100593.19;5589336;31;33328;-63
2023/03/13 07:40:01;;;;;;;;;;;;;;;6.80;66.44;100593.13;5588858;31;34884;-63
2023/03/13 07:43:05;;;;;;;;;;;;;;;7.58;63.09;100589.41;5587522;31;34599;-63
2023/03/13 07:46:13;;;;;;;;;;;;;;;8.38;59.56;100590.63;5587905;31;34157;-64
2023/03/13 07:49:18;;;;;;;;;;;;;;;9.09;56.39;100575.59;5587495;31;34643;-64
2023/03/13 07:52:21;;;;;;;;;;;;;;;9.21;54.87;100577.00;5587676;31;34802;-63
2023/03/13 07:55:29;;;;;;;;;;;;;;;8.80;54.51;100575.84;5588275;31;34487;-63
2023/03/13 07:58:34;;;;;;;;;;;;;;;9.21;53.51;100569.06;5588117;31;34675;-64
2023/03/13 08:01:38;;;;;;;;;;;;;;;9.93;51.69;100565.19;5587967;31;34394;-64
2023/03/13 08:04:42;;;;;;;;;;;;;;;10.23;50.27;100569.97;5588273;31;34307;-64
2023/03/13 08:07:46;;;;;;;;;;;;;;;11.10;48.17;100558.81;5588194;31;34122;-65
2023/03/13 08:10:49;;;;;;;;;;;;;;;9.75;49.92;100554.69;5587574;31;34965;-64
2023/03/13 08:13:53;;;;;;;;;;;;;;;10.63;47.99;100541.91;5588016;31;34590;-64
2023/03/13 08:16:57;;;;;;;;;;;;;;;10.96;47.21;100545.37;5588069;31;34905;-64
2023/03/13 08:20:01;;;;;;;;;;;;;;;12.61;44.70;100542.69;5587802;31;34755;-64
2023/03/13 08:23:05;;;;;;;;;;;;;;;12.78;42.96;100548.75;5587901;31;34447;-63
2023/03/13 08:26:16;;;;;;;;;;;;;;;12.06;43.79;100546.31;5587814;31;34325;-64
2023/03/13 08:29:19;;;;;;;;;;;;;;;12.02;43.44;100538.87;5587612;31;34087;-64
2023/03/13 08:32:22;;;;;;;;;;;;;;;13.35;40.70;100533.94;5587352;31;32963;-62
2023/03/13 08:35:27;;;;;;;;;;;;;;;13.37;40.77;100523.91;5587734;31;34314;-63
2023/03/13 08:38:31;;;;;;;;;;;;;;;14.02;38.86;100528.50;5589053;31;34471;-64
2023/03/13 08:41:37;;;;;;;;;;;;;;;14.71;37.72;100528.91;5589841;31;33389;-64
2023/03/13 08:44:42;;;;;;;;;;;;;;;14.67;37.66;100528.44;5590408;31;34462;-64
2023/03/13 08:47:50;;;;;;;;;;;;;;;14.65;37.34;100530.50;5590385;31;34324;-65
2023/03/13 08:51:02;;;;;;;;;;;;;;;14.71;36.73;100527.06;5590471;31;34355;-64
2023/03/13 08:54:06;;;;;;;;;;;;;;;13.92;38.40;100514.63;5590242;31;34447;-64
2023/03/13 08:57:11;;;;;;;;;;;;;;;12.25;41.71;100501.72;5590610;31;34297;-64
2023/03/13 09:00:17;;;;;;;;;;;;;;;10.43;45.73;100501.59;5590862;31;34594;-63
2023/03/13 09:03:21;;;;;;;;;;;;;;;10.32;47.09;100499.22;5590425;31;34194;-64
2023/03/13 09:06:25;;;;;;;;;;;;;;;10.11;47.70;100504.97;5589795;31;34201;-63
2023/03/13 09:09:28;;;;;;;;;;;;;;;9.64;48.53;100506.44;5590428;31;34237;-64
2023/03/13 09:12:32;;;;;;;;;;;;;;;9.55;47.89;100509.06;5590363;31;33866;-64
2023/03/13 09:15:36;;;;;;;;;;;;;;;9.04;49.02;100498.50;5590647;31;35018;-64
2023/03/13 09:18:41;;;;;;;;;;;;;;;9.12;49.28;100488.78;5589369;31;34232;-64
2023/03/13 09:21:45;;;;;;;;;;;;;;;9.10;49.79;100505.81;5589229;31;34395;-63
2023/03/13 09:24:50;;;;;;;;;;;;;;;9.05;49.35;100489.56;5590053;31;34899;-64
2023/03/13 09:27:54;;;;;;;;;;;;;;;9.30;49.38;100494.00;5589380;31;33997;-63
2023/03/13 09:31:07;;;;;;;;;;;;;;;9.25;48.90;100479.56;5589906;31;34915;-63
2023/03/13 09:34:12;;;;;;;;;;;;;;;9.16;49.39;100478.72;5576513;31;33455;-64
2023/03/13 09:37:18;;;;;;;;;;;;;;;9.24;48.97;100472.66;5589914;31;34258;-63
2023/03/13 09:40:22;;;;;;;;;;;;;;;9.43;48.41;100473.25;5589998;31;34950;-63
2023/03/13 09:43:39;;;;;;;;;;;;;;;9.73;48.04;100473.72;5590017;31;33864;-63
2023/03/13 09:47:02;;;;;;;;;;;;;;;10.02;46.82;100464.34;5589261;31;35250;-63
2023/03/13 09:50:18;;;;;;;;;;;;;;;9.91;46.47;100462.03;5588531;31;34136;-64
2023/03/13 09:53:32;;;;;;;;;;;;;;;10.15;45.83;100461.25;5589881;31;34943;-63
2023/03/13 09:56:39;;;;;;;;;;;;;;;10.20;46.33;100452.84;5589910;31;34903;-63
2023/03/13 09:59:47;;;;;;;;;;;;;;;10.30;48.11;100464.13;5589847;31;33535;-63
2023/03/13 10:03:12;;;;;;;;;;;;;;;10.40;46.67;100452.38;5589156;31;34246;-64
2023/03/13 10:06:22;;;;;;;;;;;;;;;10.75;46.92;100445.88;5579978;31;34771;-64
2023/03/13 10:09:30;;;;;;;;;;;;;;;10.73;46.62;100436.44;5589801;31;34372;-64
2023/03/13 10:12:40;;;;;;;;;;;;;;;10.74;45.85;100430.97;5589076;31;34273;-64
2023/03/13 10:15:48;;;;;;;;;;;;;;;10.94;45.79;100430.59;5590106;31;34979;-64
2023/03/13 10:18:55;;;;;;;;;;;;;;;10.95;46.11;100426.94;5589477;31;34488;-64
2023/03/13 10:22:02;;;;;;;;;;;;;;;10.93;46.29;100419.16;5589554;31;34657;-64
2023/03/13 10:25:18;;;;;;;;;;;;;;;11.05;46.70;100423.09;5589593;31;34538;-64
2023/03/13 10:28:24;;;;;;;;;;;;;;;11.28;46.36;100417.88;5589483;31;34148;-64
2023/03/13 10:31:27;;;;;;;;;;;;;;;11.44;46.98;100422.31;5588859;31;34218;-65
2023/03/13 10:34:51;;;;;;;;;;;;;;;11.46;45.42;100422.97;5588694;31;34188;-64
2023/03/13 10:38:01;;;;;;;;;;;;;;;11.53;45.25;100411.47;5588764;31;34183;-64
2023/03/13 10:41:17;;;;;;;;;;;;;;;11.51;45.75;100410.00;5589607;31;34368;-65
2023/03/13 10:44:29;;;;;;;;;;;;;;;11.67;46.12;100407.25;5589325;31;34746;-63
2023/03/13 10:47:34;;;;;;;;;;;;;;;11.95;44.95;100410.31;5589608;31;34337;-65
2023/03/13 10:50:41;;;;;;;;;;;;;;;11.65;44.51;100409.28;5576026;31;34470;-64
2023/03/13 10:53:46;;;;;;;;;;;;;;;11.82;44.51;100402.06;5587994;31;33101;-65
2023/03/13 10:57:06;;;;;;;;;;;;;;;11.99;43.78;100398.31;5588872;31;34589;-66
2023/03/13 11:00:31;;;;;;;;;;;;;;;12.04;43.42;100395.94;5589014;31;34437;-64
2023/03/13 11:03:36;;;;;;;;;;;;;;;12.28;43.29;100390.44;5587865;31;34185;-64
2023/03/13 11:06:41;;;;;;;;;;;;;;;12.47;42.50;100376.66;5589214;31;34155;-64
2023/03/13 11:10:15;;;;;;;;;;;;;;;12.32;42.93;100367.81;5589032;31;34917;-65
2023/03/13 11:13:37;;;;;;;;;;;;;;;12.91;41.53;100370.56;5589059;31;34618;-64
2023/03/13 11:16:45;;;;;;;;;;;;;;;13.60;40.00;100358.59;5588991;31;34218;-64
2023/03/13 11:19:50;;;;;;;;;;;;;;;17.20;34.71;100355.00;5588955;31;34891;-65
2023/03/13 11:23:10;;;;;;;;;;;;;;;21.27;29.01;100373.03;5588974;31;34505;-65
2023/03/13 11:26:33;;;;;;;;;;;;;;;22.14;26.56;100362.03;5588255;31;34195;-65
2023/03/13 11:29:49;;;;;;;;;;;;;;;19.96;29.32;100358.00;5588011;31;34581;-66
2023/03/13 11:33:00;;;;;;;;;;;;;;;19.95;28.72;100350.16;5575097;31;34528;-65
2023/03/13 11:36:11;;;;;;;;;;;;;;;21.07;27.99;100334.78;5588790;31;34279;-65
2023/03/13 11:39:20;;;;;;;;;;;;;;;22.33;26.23;100331.00;5588159;31;34614;-65
2023/03/13 11:42:47;;;;;;;;;;;;;;;20.03;28.28;100317.53;5588638;31;33885;-64
2023/03/13 11:45:58;;;;;;;;;;;;;;;20.90;27.73;100321.22;5578370;31;35063;-67
2023/03/13 11:49:05;;;;;;;;;;;;;;;21.25;26.87;100313.09;5574793;31;33985;-65
2023/03/13 11:52:15;;;;;;;;;;;;;;;19.91;28.52;100317.47;5587621;31;34211;-64
2023/03/13 11:55:25;;;;;;;;;;;;;;;20.79;28.04;100322.03;5587316;31;34471;-64
2023/03/13 11:58:36;;;;;;;;;;;;;;;22.42;26.24;100311.44;5587912;31;34909;-65
2023/03/13 12:01:42;;;;;;;;;;;;;;;21.88;26.58;100298.63;5587880;31;34892;-66
2023/03/13 12:04:58;;;;;;;;;;;;;;;22.49;27.03;100290.47;5588029;31;34360;-66
2023/03/13 12:08:04;;;;;;;;;;;;;;;22.29;25.70;100297.44;5587855;31;34834;-65
2023/03/13 12:11:16;;;;;;;;;;;;;;;20.39;28.33;100281.50;5587676;31;35008;-65
2023/03/13 12:14:24;;;;;;;;;;;;;;;19.95;28.75;100277.44;5589863;31;34190;-65
2023/03/13 12:17:40;;;;;;;;;;;;;;;19.55;30.24;100268.34;5589979;31;34175;-65
2023/03/13 12:20:44;;;;;;;;;;;;;;;20.69;28.13;100263.34;5590706;31;34278;-64
2023/03/13 12:24:06;;;;;;;;;;;;;;;22.92;25.56;100248.34;5590707;31;34268;-64
2023/03/13 12:27:17;;;;;;;;;;;;;;;21.44;27.10;100247.09;5590361;31;34932;-66
2023/03/13 12:30:41;;;;;;;;;;;;;;;22.10;26.41;100240.13;5590570;31;34983;-66
2023/03/13 12:33:51;;;;;;;;;;;;;;;20.90;27.91;100251.13;5590000;31;34300;-65
2023/03/13 12:37:25;;;;;;;;;;;;;;;20.31;27.98;100247.66;5589543;31;34180;-68
2023/03/13 12:40:37;;;;;;;;;;;;;;;22.58;25.87;100236.78;5578931;31;34391;-66
2023/03/13 12:43:43;;;;;;;;;;;;;;;21.15;26.88;100224.69;5589429;31;34245;-64
2023/03/13 12:47:06;;;;;;;;;;;;;;;19.62;29.17;100213.34;5590019;31;34290;-65
2023/03/13 12:50:13;;;;;;;;;;;;;;;21.52;27.93;100202.66;5589606;31;34210;-65
2023/03/13 12:53:37;;;;;;;;;;;;;;;23.58;24.79;100192.22;5590099;31;34966;-65
2023/03/13 12:56:46;;;;;;;;;;;;;;;25.04;23.37;100184.19;5576169;31;32982;-64
2023/03/13 12:59:55;;;;;;;;;;;;;;;23.25;25.34;100177.00;5589726;31;35095;-65
2023/03/13 13:03:23;;;;;;;;;;;;;;;23.59;24.42;100166.78;5588976;31;34955;-65
2023/03/13 13:06:46;;;;;;;;;;;;;;;22.74;25.91;100162.94;5582138;31;34730;-65
2023/03/13 13:10:08;;;;;;;;;;;;;;;21.06;27.91;100163.19;5589661;31;34504;-65
2023/03/13 13:13:15;;;;;;;;;;;;;;;24.95;23.73;100158.66;5589084;31;34326;-65
2023/03/13 13:16:21;;;;;;;;;;;;;;;22.64;25.85;100161.94;5588968;31;34318;-66
2023/03/13 13:19:26;;;;;;;;;;;;;;;19.63;29.82;100166.56;5589694;31;34278;-65
2023/03/13 13:22:36;;;;;;;;;;;;;;;17.46;32.75;100165.53;5588619;31;35026;-65
2023/03/13 13:25:41;;;;;;;;;;;;;;;17.43;32.95;100158.72;5588641;31;34942;-65
2023/03/13 13:28:45;;;;;;;;;;;;;;;17.36;33.51;100157.97;5588703;31;34573;-65
2023/03/13 13:31:50;;;;;;;;;;;;;;;16.58;34.92;100156.50;5588416;31;33909;-65
2023/03/13 13:35:01;;;;;;;;;;;;;;;18.02;32.99;100152.87;5588685;31;34242;-66
2023/03/13 13:38:16;;;;;;;;;;;;;;;19.27;31.07;100135.22;5588785;31;34179;-65
2023/03/13 13:41:33;;;;;;;;;;;;;;;19.40;31.90;100129.66;5589663;31;34770;-64
2023/03/13 13:44:56;;;;;;;;;;;;;;;20.58;29.68;100120.47;5589743;31;34984;-65
2023/03/13 13:48:13;;;;;;;;;;;;;;;18.86;31.82;100116.41;5589564;31;34450;-64
2023/03/13 13:51:18;;;;;;;;;;;;;;;18.17;33.19;100104.19;5589651;31;34858;-66
2023/03/13 13:54:30;;;;;;;;;;;;;;;18.65;32.76;100102.41;5589642;31;34891;-65
2023/03/13 13:57:36;;;;;;;;;;;;;;;18.46;33.18;100094.56;5589575;31;34242;-65
2023/03/13 14:00:51;;;;;;;;;;;;;;;17.72;34.31;100085.66;5589671;31;34637;-65
2023/03/13 14:04:12;;;;;;;;;;;;;;;18.42;33.03;100072.72;5588865;31;35219;-65
2023/03/13 14:07:30;;;;;;;;;;;;;;;19.99;31.04;100070.47;5588922;31;34900;-65
2023/03/13 14:10:51;;;;;;;;;;;;;;;17.77;33.87;100076.94;5589388;31;35034;-65
2023/03/13 14:14:13;;;;;;;;;;;;;;;17.73;34.50;100086.50;5589362;31;34906;-64
2023/03/13 14:17:19;;;;;;;;;;;;;;;17.19;35.22;100087.13;5589412;31;34411;-65
2023/03/13 14:20:31;;;;;;;;;;;;;;;16.06;37.04;100094.09;5588589;31;34740;-64
2023/03/13 14:23:43;;;;;;;;;;;;;;;16.08;36.96;100087.47;5589302;31;34879;-64
2023/03/13 14:26:47;;;;;;;;;;;;;;;17.91;34.37;100099.13;5589377;31;34972;-65
2023/03/13 14:30:00;;;;;;;;;;;;;;;18.84;32.82;100095.09;5588965;31;34328;-66
2023/03/13 14:33:06;;;;;;;;;;;;;;;18.49;33.26;100088.75;5588689;31;34179;-64
2023/03/13 14:36:11;;;;;;;;;;;;;;;16.72;36.56;100078.59;5588775;31;34565;-65
2023/03/13 14:39:35;;;;;;;;;;;;;;;16.58;37.11;100087.72;5589569;31;34720;-65
2023/03/13 14:42:45;;;;;;;;;;;;;;;16.17;37.66;100084.59;5589103;31;34672;-64
2023/03/13 14:45:50;;;;;;;;;;;;;;;15.64;39.10;100080.16;5589066;31;34796;-64
2023/03/13 14:49:04;;;;;;;;;;;;;;;15.74;39.25;100071.72;5589014;31;34249;-64
2023/03/13 14:52:25;;;;;;;;;;;;;;;15.33;39.96;100079.12;5587950;31;35019;-64
2023/03/13 14:55:31;;;;;;;;;;;;;;;15.13;40.64;100084.47;5588874;31;34313;-64
2023/03/13 14:58:37;;;;;;;;;;;;;;;15.35;40.56;100075.22;5574975;31;33253;-64
2023/03/13 15:01:43;;;;;;;;;;;;;;;15.28;40.92;100081.59;5588108;31;34346;-64
2023/03/13 15:05:00;;;;;;;;;;;;;;;15.46;40.70;100065.75;5588206;31;34378;-64
2023/03/13 15:08:12;;;;;;;;;;;;;;;15.43;40.62;100068.84;5587913;31;34511;-64
2023/03/13 15:11:17;;;;;;;;;;;;;;;15.35;41.00;100067.19;5588781;31;34169;-65
2023/03/13 15:14:30;;;;;;;;;;;;;;;15.38;41.28;100064.13;5588586;31;33843;-65
2023/03/13 15:17:34;;;;;;;;;;;;;;;15.02;41.88;100053.00;5587832;31;33899;-65
2023/03/13 15:20:56;;;;;;;;;;;;;;;14.89;42.23;100047.66;5588687;31;34264;-65
2023/03/13 15:24:26;;;;;;;;;;;;;;;15.18;42.14;100042.75;5588125;31;34394;-64
2023/03/13 15:27:32;;;;;;;;;;;;;;;15.43;41.97;100031.44;5587587;31;34171;-65
2023/03/13 15:30:36;;;;;;;;;;;;;;;15.34;41.88;100036.19;5588593;31;34297;-64
2023/03/13 15:33:42;;;;;;;;;;;;;;;15.36;41.82;100034.09;5587487;31;33356;-64
2023/03/13 15:36:50;;;;;;;;;;;;;;;15.13;42.60;100021.16;5586960;31;34238;-64
2023/03/13 15:39:57;;;;;;;;;;;;;;;14.87;42.99;100021.16;5588047;31;34406;-63
2023/03/13 15:43:01;;;;;;;;;;;;;;;14.85;43.02;100025.88;5587247;31;33772;-63
2023/03/13 15:46:14;;;;;;;;;;;;;;;14.67;43.49;100013.09;5588238;31;34785;-65
2023/03/13 15:49:19;;;;;;;;;;;;;;;14.52;43.86;100001.81;5589290;31;34462;-63
2023/03/13 15:52:23;;;;;;;;;;;;;;;14.50;43.68;100005.69;5590219;31;34272;-64
2023/03/13 15:55:28;;;;;;;;;;;;;;;14.33;44.07;99995.34;5590092;31;32966;-63
2023/03/13 15:58:34;;;;;;;;;;;;;;;14.11;44.40;99993.03;5590665;31;34207;-65
2023/03/13 16:01:39;;;;;;;;;;;;;;;14.04;44.59;99998.31;5590553;31;34162;-63
2023/03/13 16:04:45;;;;;;;;;;;;;;;14.01;44.65;100006.72;5589431;31;33200;-63
2023/03/13 16:07:50;;;;;;;;;;;;;;;14.00;44.94;100004.25;5590525;31;34255;-64
2023/03/13 16:10:56;;;;;;;;;;;;;;;13.94;45.09;100003.22;5590188;31;34744;-65
2023/03/13 16:14:04;;;;;;;;;;;;;;;13.87;45.75;100003.19;5577154;31;34456;-64
2023/03/13 16:17:13;;;;;;;;;;;;;;;13.80;45.76;99998.84;5590398;31;34919;-63
2023/03/13 16:20:20;;;;;;;;;;;;;;;13.75;46.56;99993.25;5590266;31;34914;-64